KMDH Weather | Aviation | SIU

Home
Southern Illinois University

CONTACT

SIU.EDU

Aviation - Weather

College of Applied Sciences and Arts

KMDH Weather

NOTICE: Although all weather products are taken from the National Weather Service, this data should be used only as a supplement to a formal weather briefing.

Last Updated: Wednesday, November 21st, 2018, 10:32 am
Information on this page is updated every 5 minutes.


METARS

KMDH 211552Z 21003KT 10SM CLR 06/00 A3035 RMK AO2 SLP281 T00560000

KMDH 211452Z 21006KT 8SM CLR 03/M01 A3034 RMK AO2 SLP278 T00281006 53010

KMDH 211352Z 20005KT 5SM BR CLR M01/M02 A3033 RMK AO2 SLP274 T10061017

KMWA 211545Z 23006KT 10SM SKC 05/00 A3036

KMWA 211445Z 21005KT 5SM BR SKC 01/M01 A3034

KMWA 211345Z 19005KT 4SM BR SKC M01/M02 A3034

KCGI 211553Z 27004KT 7SM CLR 05/01 A3037 RMK AO2 SLP287 T00500011

KCGI 211453Z 21005KT 5SM BR CLR 02/00 A3037 RMK AO2 SLP286 T00220000 53009

KCGI 211410Z 19003KT 3SM BR CLR 01/M01 A3036 RMK AO2 T00061011

KCGI 211353Z 15003KT 2 1/2SM BR CLR M01/M02 A3036 RMK AO2 SLP283 T10111022

KSAR 211555Z AUTO 27005KT 10SM CLR 07/01 A3034 RMK AO2 T00710014

KSAR 211535Z AUTO 27004KT 10SM CLR 06/01 A3034 RMK AO2 T00600012

KSAR 211515Z AUTO 21004KT 10SM CLR 04/01 A3034 RMK AO2 T00400007

KSAR 211455Z AUTO 22004KT 10SM CLR 03/00 A3033 RMK AO2 T00290000

KSAR 211435Z AUTO 00000KT 10SM CLR 02/00 A3033 RMK AO2 T00211002

KSAR 211415Z AUTO 19003KT 10SM CLR 01/M01 A3032 RMK AO2 T00061009

KSAR 211355Z AUTO 20004KT 10SM CLR 00/M01 A3031 RMK AO2 T00011012

KSAR 211335Z AUTO 20003KT 10SM CLR 00/M02 A3031 RMK AO2 T10051016

KFAM 211556Z AUTO VRB05KT 10SM CLR 11/01 A3033 RMK AO2 SLP275 T01060011

KFAM 211456Z AUTO 00000KT 10SM CLR 07/01 A3032 RMK AO2 SLP273 T00670011 51009

KFAM 211356Z AUTO 19003KT 10SM CLR 00/M02 A3031 RMK AO2 SLP272 T00001017 FZRANO

KMVN 211556Z AUTO 24006KT 10SM CLR 06/00 A3034 RMK AO2 SLP278 T00560000

KMVN 211356Z AUTO 22006KT 4SM BR CLR M02/M02 A3032 RMK AO2 SLP271 T10171022

KHSB 211615Z AUTO 23004KT 10SM CLR 06/02 A3036 RMK AO2 T00550015

KHSB 211555Z AUTO 21005KT 7SM CLR 04/01 A3036 RMK AO2 T00440011

KHSB 211535Z AUTO 22004KT 7SM CLR 03/01 A3035 RMK AO2 T00330009

KCIR 211615Z AUTO 23004KT 7SM CLR 05/02 A3038 RMK AO2 T00510017

KCIR 211555Z AUTO 21005KT 7SM CLR 04/02 A3038 RMK AO2 T00420016

KCIR 211535Z AUTO 21006KT 7SM CLR 03/02 A3038 RMK AO2 T00340015

KPAH 211553Z 24007KT 7SM CLR 05/00 A3037 RMK AO2 SLP288 T00500000

KFAM 211556Z AUTO VRB05KT 10SM CLR 11/01 A3033 RMK AO2 SLP275 T01060011

KBLV 211556Z AUTO 00000KT 10SM CLR 06/01 A3031 RMK AO2 SLP272 T00590010 $

KENL 211615Z AUTO 00000KT 10SM CLR 06/01 A3033 RMK AO2 T00600013

KENL 211555Z AUTO 00000KT 10SM CLR 05/01 A3033 RMK AO2 T00530011

KENL 211535Z AUTO 00000KT 10SM CLR 05/01 A3033 RMK AO2 T00460007

KMTO 211553Z AUTO 30008KT 10SM CLR 04/M01 A3029 RMK AO2 SLP264 T00441011

KFWC 211615Z AUTO 24004KT 10SM CLR 05/00 A3033 RMK AO1 T00500000

KFWC 211555Z AUTO 00000KT 10SM CLR 04/00 A3033 RMK AO1 T00410000

KFWC 211535Z AUTO 23003KT 10SM CLR 04/00 A3033 RMK AO1 T00350003

KCUL 211612Z AUTO 24004KT 7SM CLR 06/01 A3035 RMK AO2

KCUL 211552Z AUTO 20004KT 7SM CLR 05/01 A3035 RMK AO2

KEVV 211554Z 21005KT 8SM CLR 03/00 A3036 RMK AO2 SLP284 T00330000

KCEY 211615Z AUTO 21005KT 10SM CLR 05/00 A3038 RMK AO1

KCEY 211555Z AUTO 21005KT 10SM CLR 05/00 A3038 RMK AO1

KCEY 211535Z AUTO 21005KT 10SM CLR 04/00 A3038 RMK AO1

KHOP 211556Z AUTO 20004KT 10SM CLR 05/M01 A3038 RMK AO2 SLP294 T00541009

KBYH 211550Z 21009KT 7SM SKC 07/02 A3042

KARG 211556Z AUTO 22005KT 10SM CLR 06/01 A3042 RMK AO2 SLP304 T00560011

KJBR 211553Z AUTO 23007KT 9SM CLR 07/03 A3042 RMK AO2 SLP302 T00670028

KALN 211546Z 26004KT 10SM SKC 05/01 A3032

KALN 211546Z 26004KT 10SM SKC 05/01 A3032

KCOU 211554Z 29007KT 10SM CLR 09/00 A3031 RMK AO2 SLP269 T00890000

KAJG 211555Z AUTO 24006KT 10SM CLR 03/00 A3034 RMK AO2 T00281003

KAJG 211535Z AUTO 26004KT 7SM CLR 02/00 A3034 RMK AO2 T00201004

KM30 211615Z AUTO 21006KT 7SM CLR 05/01 A3038 RMK AO2 T00540009

KM30 211555Z AUTO 22007KT 7SM CLR 05/01 A3039 RMK AO2 T00460006

KM30 211535Z AUTO 22005KT 7SM CLR 04/00 A3039 RMK AO2 T00380004

KDEC 211554Z 32007KT 9SM CLR 04/M02 A3030 RMK AO2 SLP266 T00441017

KIJX 211555Z AUTO 31005KT 10SM CLR 05/00 A3030 RMK AO2 T00461002

KIJX 211535Z AUTO 29005KT 10SM CLR 04/00 A3030 RMK AO2 T00421001


TAFS

KEVV 211120Z 2112/2212 20005KT P6SM SKC

        FM211600 23007KT P6SM SKC

        FM212200 27005KT P6SM SKC

        FM220000 00000KT P6SM SKC


Winds Aloft



Pilot Reports

No pilot reports found for area.



Area Forecast



Significant Weather

WAUS45 KKCI 211445 SLCS WA 211445 AIRMET SIERRA UPDT 3 FOR IFR VALID UNTIL 212100 AIRMET IFR...ID MT FROM 30SSW YXC TO 50SW YQL TO 70W HLN TO 20NNW MLP TO 30SSW YXC CIG BLW 010/VIS BLW 3SM BR/FG. CONDS ENDG 15-18Z.
WSUS32 KKCI 211555 SIGC CONVECTIVE SIGMET...NONE OUTLOOK VALID 211755-212155 TS ARE NOT EXPD TO REQUIRE WST ISSUANCES.
WSUS32 KKCI 211455 SIGC CONVECTIVE SIGMET...NONE OUTLOOK VALID 211655-212055 TS ARE NOT EXPD TO REQUIRE WST ISSUANCES.